sensor_id;sensor_type;location;lat;lon;timestamp;P1;durP1;ratioP1;P2;durP2;ratioP2
57461;SDS011;43308;47.306;8.608;2024-03-23T00:56:04;0.93;;;0.80;;
57461;SDS011;43308;47.306;8.608;2024-03-23T00:58:30;0.82;;;0.73;;
57461;SDS011;43308;47.306;8.608;2024-03-23T01:00:57;3.10;;;0.80;;
57461;SDS011;43308;47.306;8.608;2024-03-23T01:03:22;0.95;;;0.80;;
57461;SDS011;43308;47.306;8.608;2024-03-23T01:05:48;1.23;;;0.90;;
57461;SDS011;43308;47.306;8.608;2024-03-23T01:08:14;1.45;;;0.80;;
57461;SDS011;43308;47.306;8.608;2024-03-23T01:10:40;3.80;;;1.00;;
57461;SDS011;43308;47.306;8.608;2024-03-23T01:13:06;1.70;;;0.68;;
57461;SDS011;43308;47.306;8.608;2024-03-23T01:15:32;1.58;;;0.82;;
57461;SDS011;43308;47.306;8.608;2024-03-23T01:17:58;2.92;;;1.00;;
57461;SDS011;43308;47.306;8.608;2024-03-23T01:20:24;2.33;;;0.80;;
57461;SDS011;43308;47.306;8.608;2024-03-23T01:22:50;1.75;;;1.05;;
57461;SDS011;43308;47.306;8.608;2024-03-23T01:25:16;3.95;;;1.63;;
57461;SDS011;43308;47.306;8.608;2024-03-23T01:27:42;1.20;;;1.05;;
57461;SDS011;43308;47.306;8.608;2024-03-23T01:30:08;3.08;;;2.10;;
57461;SDS011;43308;47.306;8.608;2024-03-23T01:32:34;4.15;;;0.90;;
57461;SDS011;43308;47.306;8.608;2024-03-23T01:35:00;2.28;;;1.00;;
57461;SDS011;43308;47.306;8.608;2024-03-23T01:37:27;1.85;;;0.70;;
57461;SDS011;43308;47.306;8.608;2024-03-23T01:39:53;1.33;;;0.75;;
57461;SDS011;43308;47.306;8.608;2024-03-23T01:42:20;1.85;;;1.00;;
57461;SDS011;43308;47.306;8.608;2024-03-23T01:44:46;1.83;;;0.90;;
57461;SDS011;43308;47.306;8.608;2024-03-23T01:47:12;1.90;;;0.90;;
57461;SDS011;43308;47.306;8.608;2024-03-23T01:49:38;1.95;;;0.90;;
57461;SDS011;43308;47.306;8.608;2024-03-23T01:52:05;2.28;;;0.80;;
57461;SDS011;43308;47.306;8.608;2024-03-23T01:54:31;1.45;;;1.00;;
57461;SDS011;43308;47.306;8.608;2024-03-23T01:56:57;2.88;;;1.00;;
57461;SDS011;43308;47.306;8.608;2024-03-23T01:59:24;2.53;;;1.02;;
57461;SDS011;43308;47.306;8.608;2024-03-23T02:01:50;2.67;;;0.93;;
57461;SDS011;43308;47.306;8.608;2024-03-23T02:04:18;1.13;;;0.93;;
57461;SDS011;43308;47.306;8.608;2024-03-23T02:06:45;2.70;;;1.20;;
57461;SDS011;43308;47.306;8.608;2024-03-23T02:09:11;3.50;;;1.35;;
57461;SDS011;43308;47.306;8.608;2024-03-23T02:11:37;4.43;;;1.10;;
57461;SDS011;43308;47.306;8.608;2024-03-23T02:14:03;3.22;;;0.80;;
57461;SDS011;43308;47.306;8.608;2024-03-23T02:16:29;1.75;;;1.25;;
57461;SDS011;43308;47.306;8.608;2024-03-23T02:18:54;2.13;;;1.00;;
57461;SDS011;43308;47.306;8.608;2024-03-23T02:21:20;2.72;;;1.20;;
57461;SDS011;43308;47.306;8.608;2024-03-23T02:23:46;1.70;;;1.10;;
57461;SDS011;43308;47.306;8.608;2024-03-23T02:26:14;2.15;;;1.10;;
57461;SDS011;43308;47.306;8.608;2024-03-23T02:28:40;1.60;;;0.95;;
57461;SDS011;43308;47.306;8.608;2024-03-23T02:31:06;2.00;;;0.60;;
57461;SDS011;43308;47.306;8.608;2024-03-23T02:33:32;1.42;;;1.00;;
57461;SDS011;43308;47.306;8.608;2024-03-23T02:35:59;2.25;;;1.05;;
57461;SDS011;43308;47.306;8.608;2024-03-23T02:38:25;4.10;;;0.90;;
57461;SDS011;43308;47.306;8.608;2024-03-23T02:40:53;1.48;;;0.98;;
57461;SDS011;43308;47.306;8.608;2024-03-23T02:43:19;2.05;;;1.10;;
57461;SDS011;43308;47.306;8.608;2024-03-23T02:45:45;2.97;;;0.75;;
57461;SDS011;43308;47.306;8.608;2024-03-23T02:48:11;2.10;;;0.60;;
57461;SDS011;43308;47.306;8.608;2024-03-23T02:50:37;1.05;;;0.90;;
57461;SDS011;43308;47.306;8.608;2024-03-23T02:53:03;3.08;;;1.20;;
57461;SDS011;43308;47.306;8.608;2024-03-23T02:55:29;2.67;;;0.85;;
57461;SDS011;43308;47.306;8.608;2024-03-23T02:57:55;3.05;;;0.70;;
57461;SDS011;43308;47.306;8.608;2024-03-23T03:00:22;1.38;;;0.77;;
57461;SDS011;43308;47.306;8.608;2024-03-23T03:02:47;1.60;;;1.10;;
57461;SDS011;43308;47.306;8.608;2024-03-23T03:05:13;2.53;;;0.90;;
57461;SDS011;43308;47.306;8.608;2024-03-23T03:07:39;3.08;;;0.70;;
57461;SDS011;43308;47.306;8.608;2024-03-23T03:10:06;0.70;;;0.70;;
57461;SDS011;43308;47.306;8.608;2024-03-23T03:12:34;2.78;;;1.08;;
57461;SDS011;43308;47.306;8.608;2024-03-23T03:15:00;2.40;;;0.88;;
57461;SDS011;43308;47.306;8.608;2024-03-23T03:17:26;1.65;;;0.75;;
57461;SDS011;43308;47.306;8.608;2024-03-23T03:19:51;1.17;;;0.80;;
57461;SDS011;43308;47.306;8.608;2024-03-23T03:22:21;2.10;;;1.00;;
57461;SDS011;43308;47.306;8.608;2024-03-23T03:24:48;3.50;;;0.88;;
57461;SDS011;43308;47.306;8.608;2024-03-23T03:27:14;1.92;;;0.85;;
57461;SDS011;43308;47.306;8.608;2024-03-23T03:29:40;2.28;;;1.17;;
57461;SDS011;43308;47.306;8.608;2024-03-23T03:32:06;1.08;;;0.75;;
57461;SDS011;43308;47.306;8.608;2024-03-23T03:34:32;2.10;;;0.90;;
57461;SDS011;43308;47.306;8.608;2024-03-23T03:36:58;2.42;;;0.95;;
57461;SDS011;43308;47.306;8.608;2024-03-23T03:39:25;0.70;;;0.63;;
57461;SDS011;43308;47.306;8.608;2024-03-23T03:41:51;5.22;;;0.70;;
57461;SDS011;43308;47.306;8.608;2024-03-23T03:44:17;1.02;;;0.80;;
57461;SDS011;43308;47.306;8.608;2024-03-23T03:46:42;1.52;;;0.77;;
57461;SDS011;43308;47.306;8.608;2024-03-23T03:49:09;2.40;;;0.88;;
57461;SDS011;43308;47.306;8.608;2024-03-23T03:51:34;1.67;;;0.85;;
57461;SDS011;43308;47.306;8.608;2024-03-23T03:54:00;0.90;;;0.85;;
57461;SDS011;43308;47.306;8.608;2024-03-23T03:56:26;2.05;;;1.02;;
57461;SDS011;43308;47.306;8.608;2024-03-23T03:58:53;1.35;;;0.90;;
57461;SDS011;43308;47.306;8.608;2024-03-23T04:01:19;2.33;;;1.00;;
57461;SDS011;43308;47.306;8.608;2024-03-23T04:03:46;1.83;;;1.23;;
57461;SDS011;43308;47.306;8.608;2024-03-23T04:06:12;1.33;;;0.80;;
57461;SDS011;43308;47.306;8.608;2024-03-23T04:08:44;3.40;;;1.10;;
57461;SDS011;43308;47.306;8.608;2024-03-23T04:11:10;1.17;;;0.80;;
57461;SDS011;43308;47.306;8.608;2024-03-23T04:13:36;1.85;;;0.93;;
57461;SDS011;43308;47.306;8.608;2024-03-23T04:16:02;1.02;;;0.70;;
57461;SDS011;43308;47.306;8.608;2024-03-23T04:18:28;4.10;;;0.90;;
57461;SDS011;43308;47.306;8.608;2024-03-23T04:20:54;1.15;;;0.80;;
57461;SDS011;43308;47.306;8.608;2024-03-23T04:23:19;1.65;;;0.90;;
57461;SDS011;43308;47.306;8.608;2024-03-23T04:25:46;1.45;;;0.85;;
57461;SDS011;43308;47.306;8.608;2024-03-23T04:28:12;1.23;;;0.85;;
57461;SDS011;43308;47.306;8.608;2024-03-23T04:30:38;1.58;;;0.90;;
57461;SDS011;43308;47.306;8.608;2024-03-23T04:33:04;2.25;;;1.13;;
57461;SDS011;43308;47.306;8.608;2024-03-23T04:35:30;2.13;;;1.23;;
57461;SDS011;43308;47.306;8.608;2024-03-23T04:37:56;2.35;;;0.80;;
57461;SDS011;43308;47.306;8.608;2024-03-23T04:40:24;1.02;;;0.77;;
57461;SDS011;43308;47.306;8.608;2024-03-23T04:42:51;0.82;;;0.82;;
57461;SDS011;43308;47.306;8.608;2024-03-23T04:45:17;3.00;;;1.85;;
57461;SDS011;43308;47.306;8.608;2024-03-23T04:47:43;0.77;;;0.73;;
57461;SDS011;43308;47.306;8.608;2024-03-23T04:50:09;1.73;;;1.10;;
57461;SDS011;43308;47.306;8.608;2024-03-23T04:52:39;1.70;;;0.98;;
57461;SDS011;43308;47.306;8.608;2024-03-23T04:55:05;1.17;;;1.05;;
57461;SDS011;43308;47.306;8.608;2024-03-23T04:57:31;2.50;;;0.63;;
57461;SDS011;43308;47.306;8.608;2024-03-23T04:59:57;1.95;;;0.90;;
57461;SDS011;43308;47.306;8.608;2024-03-23T05:02:23;1.02;;;0.70;;
57461;SDS011;43308;47.306;8.608;2024-03-23T05:04:51;2.25;;;1.38;;
57461;SDS011;43308;47.306;8.608;2024-03-23T05:07:17;1.38;;;1.00;;
57461;SDS011;43308;47.306;8.608;2024-03-23T05:09:42;2.28;;;0.88;;
57461;SDS011;43308;47.306;8.608;2024-03-23T05:12:08;1.30;;;1.08;;
57461;SDS011;43308;47.306;8.608;2024-03-23T05:14:34;3.75;;;1.00;;
57461;SDS011;43308;47.306;8.608;2024-03-23T05:17:00;1.92;;;0.95;;
57461;SDS011;43308;47.306;8.608;2024-03-23T05:19:26;1.63;;;1.05;;
57461;SDS011;43308;47.306;8.608;2024-03-23T05:21:52;2.05;;;1.35;;
57461;SDS011;43308;47.306;8.608;2024-03-23T05:24:18;1.27;;;0.70;;
57461;SDS011;43308;47.306;8.608;2024-03-23T05:26:44;3.47;;;0.88;;
57461;SDS011;43308;47.306;8.608;2024-03-23T05:29:11;0.95;;;0.85;;
57461;SDS011;43308;47.306;8.608;2024-03-23T05:31:39;2.45;;;1.05;;
57461;SDS011;43308;47.306;8.608;2024-03-23T05:34:07;1.10;;;1.00;;
57461;SDS011;43308;47.306;8.608;2024-03-23T05:36:34;2.17;;;0.90;;
57461;SDS011;43308;47.306;8.608;2024-03-23T05:39:01;2.05;;;1.67;;
57461;SDS011;43308;47.306;8.608;2024-03-23T05:41:27;1.70;;;0.85;;
57461;SDS011;43308;47.306;8.608;2024-03-23T05:43:53;2.28;;;1.30;;
57461;SDS011;43308;47.306;8.608;2024-03-23T05:46:19;1.80;;;1.33;;
57461;SDS011;43308;47.306;8.608;2024-03-23T05:48:45;2.15;;;1.10;;
57461;SDS011;43308;47.306;8.608;2024-03-23T05:51:11;3.03;;;1.63;;
57461;SDS011;43308;47.306;8.608;2024-03-23T05:53:38;5.22;;;2.67;;
57461;SDS011;43308;47.306;8.608;2024-03-23T05:56:04;6.68;;;3.20;;
57461;SDS011;43308;47.306;8.608;2024-03-23T05:58:30;3.33;;;2.08;;
57461;SDS011;43308;47.306;8.608;2024-03-23T06:00:57;4.10;;;2.28;;
57461;SDS011;43308;47.306;8.608;2024-03-23T06:03:27;4.68;;;2.50;;
57461;SDS011;43308;47.306;8.608;2024-03-23T06:05:56;4.80;;;2.35;;
57461;SDS011;43308;47.306;8.608;2024-03-23T06:08:22;4.85;;;2.50;;
57461;SDS011;43308;47.306;8.608;2024-03-23T06:10:48;5.63;;;2.88;;
57461;SDS011;43308;47.306;8.608;2024-03-23T06:13:15;3.70;;;2.70;;
57461;SDS011;43308;47.306;8.608;2024-03-23T06:15:42;4.60;;;2.83;;
57461;SDS011;43308;47.306;8.608;2024-03-23T06:18:08;3.22;;;2.67;;
57461;SDS011;43308;47.306;8.608;2024-03-23T06:20:34;4.55;;;3.00;;
57461;SDS011;43308;47.306;8.608;2024-03-23T06:23:00;4.47;;;2.42;;
57461;SDS011;43308;47.306;8.608;2024-03-23T06:25:27;4.15;;;3.20;;
57461;SDS011;43308;47.306;8.608;2024-03-23T06:27:53;6.18;;;3.65;;
57461;SDS011;43308;47.306;8.608;2024-03-23T06:30:19;4.38;;;3.35;;
57461;SDS011;43308;47.306;8.608;2024-03-23T06:32:45;5.30;;;3.17;;
57461;SDS011;43308;47.306;8.608;2024-03-23T06:35:11;3.58;;;3.20;;
57461;SDS011;43308;47.306;8.608;2024-03-23T06:37:37;6.90;;;4.45;;
57461;SDS011;43308;47.306;8.608;2024-03-23T06:40:04;3.85;;;3.33;;
57461;SDS011;43308;47.306;8.608;2024-03-23T06:42:35;4.50;;;3.25;;
57461;SDS011;43308;47.306;8.608;2024-03-23T06:45:02;4.30;;;2.90;;
57461;SDS011;43308;47.306;8.608;2024-03-23T06:47:30;3.97;;;3.05;;
57461;SDS011;43308;47.306;8.608;2024-03-23T06:49:56;4.38;;;3.17;;
57461;SDS011;43308;47.306;8.608;2024-03-23T06:52:22;3.92;;;2.67;;
57461;SDS011;43308;47.306;8.608;2024-03-23T06:54:48;3.55;;;3.10;;
57461;SDS011;43308;47.306;8.608;2024-03-23T06:57:14;3.95;;;2.90;;
57461;SDS011;43308;47.306;8.608;2024-03-23T06:59:40;4.85;;;2.85;;
57461;SDS011;43308;47.306;8.608;2024-03-23T07:02:06;3.65;;;2.88;;
57461;SDS011;43308;47.306;8.608;2024-03-23T07:04:34;4.75;;;3.55;;
57461;SDS011;43308;47.306;8.608;2024-03-23T07:07:01;3.50;;;2.85;;
57461;SDS011;43308;47.306;8.608;2024-03-23T07:09:27;3.58;;;2.58;;
57461;SDS011;43308;47.306;8.608;2024-03-23T07:11:58;4.22;;;3.13;;
57461;SDS011;43308;47.306;8.608;2024-03-23T07:14:25;4.13;;;3.20;;
57461;SDS011;43308;47.306;8.608;2024-03-23T07:16:51;4.10;;;3.70;;
57461;SDS011;43308;47.306;8.608;2024-03-23T07:19:17;4.63;;;3.70;;
57461;SDS011;43308;47.306;8.608;2024-03-23T07:21:43;3.40;;;2.78;;
57461;SDS011;43308;47.306;8.608;2024-03-23T07:24:10;4.43;;;3.05;;
57461;SDS011;43308;47.306;8.608;2024-03-23T07:26:36;5.20;;;3.58;;
57461;SDS011;43308;47.306;8.608;2024-03-23T07:29:03;5.55;;;3.22;;
57461;SDS011;43308;47.306;8.608;2024-03-23T07:31:30;3.85;;;3.42;;
57461;SDS011;43308;47.306;8.608;2024-03-23T07:33:56;4.20;;;3.70;;
57461;SDS011;43308;47.306;8.608;2024-03-23T07:36:21;3.65;;;3.15;;
57461;SDS011;43308;47.306;8.608;2024-03-23T07:38:47;4.53;;;2.65;;
57461;SDS011;43308;47.306;8.608;2024-03-23T07:41:17;4.93;;;2.95;;
57461;SDS011;43308;47.306;8.608;2024-03-23T07:43:46;3.15;;;2.45;;
57461;SDS011;43308;47.306;8.608;2024-03-23T07:46:13;2.80;;;2.28;;
57461;SDS011;43308;47.306;8.608;2024-03-23T07:48:40;3.00;;;2.28;;
57461;SDS011;43308;47.306;8.608;2024-03-23T07:51:10;2.60;;;2.22;;
57461;SDS011;43308;47.306;8.608;2024-03-23T07:53:37;2.17;;;1.98;;
57461;SDS011;43308;47.306;8.608;2024-03-23T07:58:34;1.27;;;1.00;;
57461;SDS011;43308;47.306;8.608;2024-03-23T08:01:04;1.02;;;0.90;;
57461;SDS011;43308;47.306;8.608;2024-03-23T08:03:31;1.90;;;0.95;;
57461;SDS011;43308;47.306;8.608;2024-03-23T08:05:57;1.95;;;1.73;;
57461;SDS011;43308;47.306;8.608;2024-03-23T08:08:23;1.17;;;0.50;;
57461;SDS011;43308;47.306;8.608;2024-03-23T08:10:52;0.10;;;0.10;;
57461;SDS011;43308;47.306;8.608;2024-03-23T08:13:18;0.32;;;0.20;;
57461;SDS011;43308;47.306;8.608;2024-03-23T08:15:45;0.93;;;0.10;;
57461;SDS011;43308;47.306;8.608;2024-03-23T08:18:12;1.17;;;0.22;;
57461;SDS011;43308;47.306;8.608;2024-03-23T08:20:39;0.77;;;0.17;;
57461;SDS011;43308;47.306;8.608;2024-03-23T08:23:05;0.60;;;0.20;;
57461;SDS011;43308;47.306;8.608;2024-03-23T08:25:32;0.10;;;0.10;;
57461;SDS011;43308;47.306;8.608;2024-03-23T08:27:58;0.90;;;0.10;;
57461;SDS011;43308;47.306;8.608;2024-03-23T08:30:24;0.40;;;0.10;;
57461;SDS011;43308;47.306;8.608;2024-03-23T08:32:50;0.15;;;0.08;;
57461;SDS011;43308;47.306;8.608;2024-03-23T08:35:17;0.38;;;0.13;;
57461;SDS011;43308;47.306;8.608;2024-03-23T08:37:43;0.43;;;0.05;;
57461;SDS011;43308;47.306;8.608;2024-03-23T08:40:09;0.20;;;0.20;;
57461;SDS011;43308;47.306;8.608;2024-03-23T08:42:35;0.90;;;0.10;;
57461;SDS011;43308;47.306;8.608;2024-03-23T08:45:02;0.75;;;0.22;;
57461;SDS011;43308;47.306;8.608;2024-03-23T08:47:28;0.98;;;0.20;;
57461;SDS011;43308;47.306;8.608;2024-03-23T08:49:54;1.38;;;0.20;;
57461;SDS011;43308;47.306;8.608;2024-03-23T08:52:20;1.42;;;0.17;;
57461;SDS011;43308;47.306;8.608;2024-03-23T08:54:48;1.60;;;0.40;;
57461;SDS011;43308;47.306;8.608;2024-03-23T08:57:14;2.78;;;0.98;;
57461;SDS011;43308;47.306;8.608;2024-03-23T08:59:40;2.65;;;0.28;;
57461;SDS011;43308;47.306;8.608;2024-03-23T09:02:06;1.13;;;0.40;;
57461;SDS011;43308;47.306;8.608;2024-03-23T09:04:32;2.85;;;0.80;;
57461;SDS011;43308;47.306;8.608;2024-03-23T09:06:58;1.52;;;0.30;;
57461;SDS011;43308;47.306;8.608;2024-03-23T09:09:25;1.35;;;0.30;;
57461;SDS011;43308;47.306;8.608;2024-03-23T09:11:51;6.60;;;0.60;;
57461;SDS011;43308;47.306;8.608;2024-03-23T09:14:17;2.22;;;0.60;;
57461;SDS011;43308;47.306;8.608;2024-03-23T09:16:43;2.85;;;0.75;;
57461;SDS011;43308;47.306;8.608;2024-03-23T09:19:09;1.00;;;0.60;;
57461;SDS011;43308;47.306;8.608;2024-03-23T09:21:34;4.00;;;1.00;;
57461;SDS011;43308;47.306;8.608;2024-03-23T09:24:00;3.15;;;0.80;;
57461;SDS011;43308;47.306;8.608;2024-03-23T09:26:26;2.75;;;0.90;;
57461;SDS011;43308;47.306;8.608;2024-03-23T09:28:52;7.20;;;0.80;;
57461;SDS011;43308;47.306;8.608;2024-03-23T09:31:18;4.55;;;0.75;;
57461;SDS011;43308;47.306;8.608;2024-03-23T09:33:45;2.50;;;0.60;;
57461;SDS011;43308;47.306;8.608;2024-03-23T09:36:11;2.70;;;0.60;;
57461;SDS011;43308;47.306;8.608;2024-03-23T09:38:37;2.75;;;0.68;;
57461;SDS011;43308;47.306;8.608;2024-03-23T09:41:06;4.68;;;0.57;;
57461;SDS011;43308;47.306;8.608;2024-03-23T09:43:34;4.00;;;0.68;;
57461;SDS011;43308;47.306;8.608;2024-03-23T09:46:03;3.90;;;0.80;;
57461;SDS011;43308;47.306;8.608;2024-03-23T09:48:30;4.03;;;0.93;;
57461;SDS011;43308;47.306;8.608;2024-03-23T09:50:56;4.22;;;0.77;;
57461;SDS011;43308;47.306;8.608;2024-03-23T09:53:23;3.55;;;0.93;;
57461;SDS011;43308;47.306;8.608;2024-03-23T09:55:49;5.10;;;0.82;;
57461;SDS011;43308;47.306;8.608;2024-03-23T09:58:18;2.95;;;0.82;;
57461;SDS011;43308;47.306;8.608;2024-03-23T10:00:44;6.68;;;1.10;;
57461;SDS011;43308;47.306;8.608;2024-03-23T10:03:11;4.28;;;1.83;;
57461;SDS011;43308;47.306;8.608;2024-03-23T10:05:37;7.07;;;1.20;;
57461;SDS011;43308;47.306;8.608;2024-03-23T10:10:39;4.18;;;0.73;;
57461;SDS011;43308;47.306;8.608;2024-03-23T10:13:08;3.05;;;0.70;;
57461;SDS011;43308;47.306;8.608;2024-03-23T10:15:35;3.83;;;1.00;;
57461;SDS011;43308;47.306;8.608;2024-03-23T10:18:17;6.07;;;0.80;;
57461;SDS011;43308;47.306;8.608;2024-03-23T10:20:47;7.75;;;1.13;;
57461;SDS011;43308;47.306;8.608;2024-03-23T10:23:18;3.38;;;1.35;;
57461;SDS011;43308;47.306;8.608;2024-03-23T10:25:44;3.92;;;0.73;;
57461;SDS011;43308;47.306;8.608;2024-03-23T10:28:11;5.28;;;0.80;;
57461;SDS011;43308;47.306;8.608;2024-03-23T10:30:37;6.00;;;1.63;;
57461;SDS011;43308;47.306;8.608;2024-03-23T10:33:06;7.88;;;0.90;;
57461;SDS011;43308;47.306;8.608;2024-03-23T10:35:33;6.10;;;1.25;;
57461;SDS011;43308;47.306;8.608;2024-03-23T10:38:01;6.50;;;1.77;;
57461;SDS011;43308;47.306;8.608;2024-03-23T10:40:30;5.95;;;1.23;;
57461;SDS011;43308;47.306;8.608;2024-03-23T10:42:57;4.22;;;1.13;;
57461;SDS011;43308;47.306;8.608;2024-03-23T10:45:24;9.15;;;1.33;;
57461;SDS011;43308;47.306;8.608;2024-03-23T10:47:50;6.53;;;1.30;;
57461;SDS011;43308;47.306;8.608;2024-03-23T10:50:17;6.97;;;0.50;;
57461;SDS011;43308;47.306;8.608;2024-03-23T10:52:46;4.75;;;1.25;;
57461;SDS011;43308;47.306;8.608;2024-03-23T10:55:13;6.05;;;1.15;;
57461;SDS011;43308;47.306;8.608;2024-03-23T10:57:47;6.15;;;0.90;;
57461;SDS011;43308;47.306;8.608;2024-03-23T11:00:17;2.00;;;0.70;;
57461;SDS011;43308;47.306;8.608;2024-03-23T11:02:43;6.50;;;1.20;;
57461;SDS011;43308;47.306;8.608;2024-03-23T11:07:50;5.18;;;0.73;;
57461;SDS011;43308;47.306;8.608;2024-03-23T11:10:27;4.38;;;1.05;;
57461;SDS011;43308;47.306;8.608;2024-03-23T11:13:22;4.03;;;0.73;;
57461;SDS011;43308;47.306;8.608;2024-03-23T11:15:49;2.88;;;0.60;;
57461;SDS011;43308;47.306;8.608;2024-03-23T11:18:20;2.13;;;0.70;;
57461;SDS011;43308;47.306;8.608;2024-03-23T11:20:46;3.53;;;1.00;;
57461;SDS011;43308;47.306;8.608;2024-03-23T11:23:28;2.78;;;0.60;;
57461;SDS011;43308;47.306;8.608;2024-03-23T11:25:54;7.88;;;0.90;;
57461;SDS011;43308;47.306;8.608;2024-03-23T11:28:20;4.32;;;0.70;;
57461;SDS011;43308;47.306;8.608;2024-03-23T11:30:47;6.05;;;0.85;;
57461;SDS011;43308;47.306;8.608;2024-03-23T11:33:13;3.53;;;0.70;;
57461;SDS011;43308;47.306;8.608;2024-03-23T11:35:39;4.65;;;0.68;;
57461;SDS011;43308;47.306;8.608;2024-03-23T11:40:33;4.75;;;0.70;;
57461;SDS011;43308;47.306;8.608;2024-03-23T11:43:00;3.55;;;0.65;;
57461;SDS011;43308;47.306;8.608;2024-03-23T11:45:27;3.70;;;0.70;;
57461;SDS011;43308;47.306;8.608;2024-03-23T11:50:31;3.88;;;0.40;;
57461;SDS011;43308;47.306;8.608;2024-03-23T11:53:07;3.22;;;0.40;;
57461;SDS011;43308;47.306;8.608;2024-03-23T11:55:49;2.17;;;1.05;;
57461;SDS011;43308;47.306;8.608;2024-03-23T11:58:22;4.20;;;0.68;;
57461;SDS011;43308;47.306;8.608;2024-03-23T12:03:17;1.75;;;0.50;;
57461;SDS011;43308;47.306;8.608;2024-03-23T12:05:48;6.00;;;0.50;;
57461;SDS011;43308;47.306;8.608;2024-03-23T12:08:19;3.40;;;0.38;;
57461;SDS011;43308;47.306;8.608;2024-03-23T12:10:50;1.77;;;0.38;;
57461;SDS011;43308;47.306;8.608;2024-03-23T12:13:18;2.88;;;0.60;;
57461;SDS011;43308;47.306;8.608;2024-03-23T12:15:50;7.47;;;2.38;;
57461;SDS011;43308;47.306;8.608;2024-03-23T12:18:17;3.30;;;0.40;;
57461;SDS011;43308;47.306;8.608;2024-03-23T12:20:50;1.85;;;0.73;;
57461;SDS011;43308;47.306;8.608;2024-03-23T12:23:16;2.63;;;0.70;;
57461;SDS011;43308;47.306;8.608;2024-03-23T12:25:43;4.78;;;0.70;;
57461;SDS011;43308;47.306;8.608;2024-03-23T12:28:14;2.72;;;0.68;;
57461;SDS011;43308;47.306;8.608;2024-03-23T12:30:40;1.42;;;0.45;;
57461;SDS011;43308;47.306;8.608;2024-03-23T12:33:06;3.15;;;0.52;;
57461;SDS011;43308;47.306;8.608;2024-03-23T12:35:32;1.42;;;0.60;;
57461;SDS011;43308;47.306;8.608;2024-03-23T12:37:58;2.20;;;0.50;;
57461;SDS011;43308;47.306;8.608;2024-03-23T12:40:25;3.22;;;0.65;;
57461;SDS011;43308;47.306;8.608;2024-03-23T12:42:52;2.30;;;0.50;;
57461;SDS011;43308;47.306;8.608;2024-03-23T12:45:18;2.95;;;0.77;;
57461;SDS011;43308;47.306;8.608;2024-03-23T12:47:44;2.72;;;0.50;;
57461;SDS011;43308;47.306;8.608;2024-03-23T12:50:10;2.88;;;0.70;;
57461;SDS011;43308;47.306;8.608;2024-03-23T12:52:37;6.22;;;0.82;;
57461;SDS011;43308;47.306;8.608;2024-03-23T12:55:03;2.42;;;0.50;;
57461;SDS011;43308;47.306;8.608;2024-03-23T12:57:32;3.78;;;0.68;;
57461;SDS011;43308;47.306;8.608;2024-03-23T12:59:59;3.63;;;1.02;;
57461;SDS011;43308;47.306;8.608;2024-03-23T13:02:25;3.10;;;0.60;;
57461;SDS011;43308;47.306;8.608;2024-03-23T13:04:54;4.32;;;0.85;;
57461;SDS011;43308;47.306;8.608;2024-03-23T13:07:21;1.88;;;0.60;;
57461;SDS011;43308;47.306;8.608;2024-03-23T13:09:51;3.00;;;0.57;;
57461;SDS011;43308;47.306;8.608;2024-03-23T13:12:18;2.40;;;0.50;;
57461;SDS011;43308;47.306;8.608;2024-03-23T13:14:45;2.60;;;1.00;;
57461;SDS011;43308;47.306;8.608;2024-03-23T13:17:12;3.05;;;1.00;;
57461;SDS011;43308;47.306;8.608;2024-03-23T13:19:38;2.95;;;0.75;;
57461;SDS011;43308;47.306;8.608;2024-03-23T13:22:04;3.65;;;0.70;;
57461;SDS011;43308;47.306;8.608;2024-03-23T13:24:31;3.58;;;1.27;;
57461;SDS011;43308;47.306;8.608;2024-03-23T13:26:57;4.55;;;0.60;;
57461;SDS011;43308;47.306;8.608;2024-03-23T13:29:24;5.07;;;0.60;;
57461;SDS011;43308;47.306;8.608;2024-03-23T13:31:51;2.65;;;0.82;;
57461;SDS011;43308;47.306;8.608;2024-03-23T13:34:17;2.70;;;0.63;;
57461;SDS011;43308;47.306;8.608;2024-03-23T13:36:44;4.78;;;0.82;;
57461;SDS011;43308;47.306;8.608;2024-03-23T13:39:11;1.83;;;0.50;;
57461;SDS011;43308;47.306;8.608;2024-03-23T13:44:04;2.67;;;0.52;;
57461;SDS011;43308;47.306;8.608;2024-03-23T13:46:31;5.43;;;0.80;;
57461;SDS011;43308;47.306;8.608;2024-03-23T13:48:58;2.20;;;0.50;;
57461;SDS011;43308;47.306;8.608;2024-03-23T13:51:24;1.85;;;0.40;;
57461;SDS011;43308;47.306;8.608;2024-03-23T13:53:53;3.90;;;0.90;;
57461;SDS011;43308;47.306;8.608;2024-03-23T13:56:20;4.53;;;0.80;;
57461;SDS011;43308;47.306;8.608;2024-03-23T13:58:46;3.50;;;0.60;;
57461;SDS011;43308;47.306;8.608;2024-03-23T14:01:16;2.45;;;0.50;;
57461;SDS011;43308;47.306;8.608;2024-03-23T14:03:42;3.47;;;0.52;;
57461;SDS011;43308;47.306;8.608;2024-03-23T14:06:09;3.58;;;0.73;;
57461;SDS011;43308;47.306;8.608;2024-03-23T14:08:37;3.80;;;0.80;;
57461;SDS011;43308;47.306;8.608;2024-03-23T14:11:07;4.75;;;0.60;;
57461;SDS011;43308;47.306;8.608;2024-03-23T14:13:34;2.25;;;0.70;;
57461;SDS011;43308;47.306;8.608;2024-03-23T14:16:01;2.80;;;0.55;;
57461;SDS011;43308;47.306;8.608;2024-03-23T14:18:27;2.28;;;0.30;;
57461;SDS011;43308;47.306;8.608;2024-03-23T14:20:57;4.22;;;0.80;;
57461;SDS011;43308;47.306;8.608;2024-03-23T14:23:28;4.15;;;0.90;;
57461;SDS011;43308;47.306;8.608;2024-03-23T14:25:58;2.72;;;0.50;;
57461;SDS011;43308;47.306;8.608;2024-03-23T14:28:24;4.00;;;0.40;;
57461;SDS011;43308;47.306;8.608;2024-03-23T14:30:51;1.83;;;0.40;;
57461;SDS011;43308;47.306;8.608;2024-03-23T14:33:19;3.70;;;0.60;;
57461;SDS011;43308;47.306;8.608;2024-03-23T14:35:55;2.88;;;0.52;;
57461;SDS011;43308;47.306;8.608;2024-03-23T14:38:23;3.45;;;0.50;;
57461;SDS011;43308;47.306;8.608;2024-03-23T14:40:49;2.22;;;0.20;;
57461;SDS011;43308;47.306;8.608;2024-03-23T14:43:18;3.05;;;0.47;;
57461;SDS011;43308;47.306;8.608;2024-03-23T14:46:05;4.65;;;0.50;;
57461;SDS011;43308;47.306;8.608;2024-03-23T14:48:33;2.65;;;0.90;;
57461;SDS011;43308;47.306;8.608;2024-03-23T14:50:59;2.28;;;0.82;;
57461;SDS011;43308;47.306;8.608;2024-03-23T14:53:26;3.97;;;0.75;;
57461;SDS011;43308;47.306;8.608;2024-03-23T14:55:55;2.13;;;0.68;;
57461;SDS011;43308;47.306;8.608;2024-03-23T14:58:22;1.88;;;0.60;;
57461;SDS011;43308;47.306;8.608;2024-03-23T15:00:49;3.80;;;0.52;;
57461;SDS011;43308;47.306;8.608;2024-03-23T15:03:15;2.50;;;0.50;;
57461;SDS011;43308;47.306;8.608;2024-03-23T15:05:41;1.70;;;0.47;;
57461;SDS011;43308;47.306;8.608;2024-03-23T15:08:07;0.60;;;0.32;;
57461;SDS011;43308;47.306;8.608;2024-03-23T15:10:34;2.85;;;1.13;;
57461;SDS011;43308;47.306;8.608;2024-03-23T15:12:59;2.88;;;0.50;;
57461;SDS011;43308;47.306;8.608;2024-03-23T15:15:25;3.30;;;0.63;;
57461;SDS011;43308;47.306;8.608;2024-03-23T15:17:51;3.45;;;0.60;;
57461;SDS011;43308;47.306;8.608;2024-03-23T15:20:17;3.67;;;0.63;;
57461;SDS011;43308;47.306;8.608;2024-03-23T15:22:43;3.83;;;1.05;;
57461;SDS011;43308;47.306;8.608;2024-03-23T15:25:09;2.83;;;1.15;;
57461;SDS011;43308;47.306;8.608;2024-03-23T15:27:35;3.17;;;0.40;;
57461;SDS011;43308;47.306;8.608;2024-03-23T15:30:01;2.55;;;0.65;;
57461;SDS011;43308;47.306;8.608;2024-03-23T15:32:27;2.38;;;0.63;;
57461;SDS011;43308;47.306;8.608;2024-03-23T15:34:52;2.58;;;0.65;;
57461;SDS011;43308;47.306;8.608;2024-03-23T15:37:18;2.88;;;0.43;;
57461;SDS011;43308;47.306;8.608;2024-03-23T15:39:44;3.05;;;0.57;;
57461;SDS011;43308;47.306;8.608;2024-03-23T15:42:10;3.47;;;0.60;;
57461;SDS011;43308;47.306;8.608;2024-03-23T15:44:36;3.83;;;0.32;;
57461;SDS011;43308;47.306;8.608;2024-03-23T15:47:02;2.55;;;0.63;;
57461;SDS011;43308;47.306;8.608;2024-03-23T15:49:28;1.65;;;0.38;;
57461;SDS011;43308;47.306;8.608;2024-03-23T15:51:54;3.55;;;0.40;;
57461;SDS011;43308;47.306;8.608;2024-03-23T15:54:19;2.50;;;0.60;;
57461;SDS011;43308;47.306;8.608;2024-03-23T15:56:47;2.65;;;0.43;;
57461;SDS011;43308;47.306;8.608;2024-03-23T15:59:13;3.10;;;0.47;;